Time;durP1;ratioP1;P1;durP2;ratioP2;P2;SDS_P1;SDS_P2;PMS_P1;PMS_P2;Temp;Humidity;BMP_temperature;BMP_pressure;BME280_temperature;BME280_humidity;BME280_pressure;Samples;Min_cycle;Max_cycle;Signal;HPM_P1;HPM_P2
2024/03/29 06:02:40;;;;;;;;;;;;;;;12.95;100.00;99038.72;1864663;75;20117;-70
2024/03/29 06:05:08;;;;;;;;;;;;;;;12.85;100.00;99034.72;1825288;77;20472;-70
2024/03/29 06:07:37;;;;;;;;;;;;;;;12.79;100.00;99034.41;1832727;76;20144;-76
2024/03/29 06:10:09;;;;;;;;;;;;;;;12.80;100.00;99039.48;1826960;76;20164;-71
2024/03/29 06:12:38;;;;;;;;;;;;;;;12.87;100.00;99039.82;1833984;77;20123;-72
2024/03/29 06:17:51;;;;;;;;;;;;;;;13.14;100.00;99041.50;1829658;77;20245;-69
2024/03/29 06:20:17;;;;;;;;;;;;;;;13.32;100.00;99043.08;1827730;77;20124;-72
2024/03/29 06:22:44;;;;;;;;;;;;;;;13.48;100.00;99046.57;1831411;77;20099;-75
2024/03/29 06:25:11;;;;;;;;;;;;;;;13.58;100.00;99052.22;1823745;77;20444;-74
2024/03/29 06:27:39;;;;;;;;;;;;;;;13.66;100.00;99051.06;1832408;77;20400;-72
2024/03/29 06:30:08;;;;;;;;;;;;;;;13.76;100.00;99058.97;1825883;77;20102;-70
2024/03/29 06:32:37;;;;;;;;;;;;;;;13.88;100.00;99056.63;1829355;77;20091;-71
2024/03/29 06:35:04;;;;;;;;;;;;;;;13.98;100.00;99057.51;1835434;77;20154;-74
2024/03/29 06:37:31;;;;;;;;;;;;;;;14.06;100.00;99054.20;1834074;78;20107;-77
2024/03/29 06:40:03;;;;;;;;;;;;;;;14.12;100.00;99055.47;1825879;77;20133;-76
2024/03/29 06:42:32;;;;;;;;;;;;;;;14.19;100.00;99056.61;1834223;77;20216;-76
2024/03/29 06:44:58;;;;;;;;;;;;;;;14.22;100.00;99058.95;1828833;77;20146;-75
2024/03/29 06:47:27;;;;;;;;;;;;;;;14.23;100.00;99060.62;1830299;77;20089;-72
2024/03/29 06:49:55;;;;;;;;;;;;;;;14.24;100.00;99054.42;1813668;77;20102;-69
2024/03/29 06:52:25;;;;;;;;;;;;;;;14.17;100.00;99054.12;1838166;77;20083;-73
2024/03/29 06:54:53;;;;;;;;;;;;;;;14.11;100.00;99054.64;1833974;77;20178;-69
2024/03/29 06:57:25;;;;;;;;;;;;;;;14.06;100.00;99066.47;1830414;76;20469;-70
2024/03/29 06:59:54;;;;;;;;;;;;;;;13.98;100.00;99069.28;1829055;77;20101;-71
2024/03/29 07:02:23;;;;;;;;;;;;;;;13.89;100.00;99065.31;1835136;77;20099;-70
2024/03/29 07:04:50;;;;;;;;;;;;;;;13.82;100.00;99070.70;1832661;77;20113;-69
2024/03/29 07:07:17;;;;;;;;;;;;;;;13.74;100.00;99073.97;1814258;77;20421;-72
2024/03/29 07:09:43;;;;;;;;;;;;;;;13.65;100.00;99087.34;1801844;77;20385;-72
2024/03/29 07:12:11;;;;;;;;;;;;;;;13.53;100.00;99094.09;1819531;77;20588;-70
2024/03/29 07:14:38;;;;;;;;;;;;;;;13.38;100.00;99091.43;1813634;77;20128;-69
2024/03/29 07:17:05;;;;;;;;;;;;;;;13.24;100.00;99096.00;1808708;77;20100;-69
2024/03/29 07:19:31;;;;;;;;;;;;;;;13.12;100.00;99089.16;1818348;77;20127;-72
2024/03/29 07:21:58;;;;;;;;;;;;;;;13.05;100.00;99085.84;1807180;78;20387;-76
2024/03/29 07:24:24;;;;;;;;;;;;;;;12.99;100.00;99087.17;1819949;77;20445;-72
2024/03/29 07:26:51;;;;;;;;;;;;;;;13.00;100.00;99105.82;1823888;77;20134;-72
2024/03/29 07:29:18;;;;;;;;;;;;;;;13.02;100.00;99113.89;1793719;78;20106;-75
2024/03/29 07:31:47;;;;;;;;;;;;;;;13.09;100.00;99106.87;1820069;77;20106;-71
2024/03/29 07:34:15;;;;;;;;;;;;;;;13.14;100.00;99119.09;1810845;78;20127;-73
2024/03/29 07:36:42;;;;;;;;;;;;;;;13.18;100.00;99105.67;1810707;78;20125;-73
2024/03/29 07:39:08;;;;;;;;;;;;;;;13.24;100.00;99129.16;1813896;77;20167;-71
2024/03/29 07:41:35;;;;;;;;;;;;;;;13.25;100.00;99119.88;1807901;78;20128;-80
2024/03/29 07:44:04;;;;;;;;;;;;;;;13.31;100.00;99114.63;1821424;77;20111;-73
2024/03/29 07:46:55;;;;;;;;;;;;;;;13.32;100.00;99117.13;1811395;78;20125;-75
2024/03/29 07:49:31;;;;;;;;;;;;;;;13.32;100.00;99117.13;1681374;83;20958;-75
2024/03/29 07:52:05;;;;;;;;;;;;;;;13.30;100.00;99114.28;1794470;78;20102;-74
2024/03/29 07:54:30;;;;;;;;;;;;;;;13.26;100.00;99114.17;1796963;79;20157;-77
2024/03/29 07:56:59;;;;;;;;;;;;;;;13.22;100.00;99110.15;1805605;77;20105;-74
2024/03/29 07:59:26;;;;;;;;;;;;;;;13.22;100.00;99124.05;1794353;78;20091;-79
2024/03/29 08:01:54;;;;;;;;;;;;;;;13.24;100.00;99138.30;1821057;79;20147;-79
2024/03/29 08:04:21;;;;;;;;;;;;;;;13.25;100.00;99146.02;1815728;78;20161;-71
2024/03/29 08:06:47;;;;;;;;;;;;;;;13.25;100.00;99133.43;1792580;79;20106;-72
2024/03/29 08:09:15;;;;;;;;;;;;;;;13.22;100.00;99121.91;1796271;79;20126;-70
2024/03/29 08:11:42;;;;;;;;;;;;;;;13.23;100.00;99115.73;1799157;77;20110;-70
2024/03/29 08:14:09;;;;;;;;;;;;;;;13.28;100.00;99114.41;1813364;77;20099;-69
2024/03/29 08:16:36;;;;;;;;;;;;;;;13.34;100.00;99107.38;1809747;77;20107;-73
2024/03/29 08:19:04;;;;;;;;;;;;;;;13.41;100.00;99115.55;1790440;78;20143;-72
2024/03/29 08:21:30;;;;;;;;;;;;;;;13.47;100.00;99132.52;1816541;77;20115;-74
2024/03/29 08:24:01;;;;;;;;;;;;;;;13.46;100.00;99131.69;1818156;77;20427;-74
2024/03/29 08:26:32;;;;;;;;;;;;;;;13.43;100.00;99138.95;1804135;77;20129;-70
2024/03/29 08:28:56;;;;;;;;;;;;;;;13.39;100.00;99142.30;1812139;79;20221;-73
2024/03/29 08:31:24;;;;;;;;;;;;;;;13.35;100.00;99148.25;1783887;79;20086;-72
2024/03/29 08:33:50;;;;;;;;;;;;;;;13.32;100.00;99141.13;1817448;77;20137;-72
2024/03/29 08:36:18;;;;;;;;;;;;;;;13.28;100.00;99131.87;1818147;77;20092;-70
2024/03/29 08:38:46;;;;;;;;;;;;;;;13.25;100.00;99142.58;1805461;77;20152;-72
2024/03/29 08:41:17;;;;;;;;;;;;;;;13.22;100.00;99149.36;1806915;78;20381;-71
2024/03/29 08:43:43;;;;;;;;;;;;;;;13.19;100.00;99154.87;1756697;80;20129;-77
2024/03/29 08:46:09;;;;;;;;;;;;;;;13.15;100.00;99158.65;1779667;79;20207;-72
2024/03/29 08:48:42;;;;;;;;;;;;;;;13.13;100.00;99152.23;1756947;80;20155;-72
2024/03/29 08:51:07;;;;;;;;;;;;;;;13.12;100.00;99158.42;1785639;79;20114;-72
2024/03/29 08:53:38;;;;;;;;;;;;;;;13.12;100.00;99147.97;1767264;79;20121;-75
2024/03/29 08:56:06;;;;;;;;;;;;;;;13.14;100.00;99145.23;1771719;79;20095;-73
2024/03/29 08:58:33;;;;;;;;;;;;;;;13.14;100.00;99150.45;1804954;78;20163;-73
2024/03/29 09:01:05;;;;;;;;;;;;;;;13.14;100.00;99149.14;1815274;78;20148;-78
2024/03/29 09:03:32;;;;;;;;;;;;;;;13.13;100.00;99148.80;1802422;79;20130;-77
2024/03/29 09:05:59;;;;;;;;;;;;;;;13.13;100.00;99152.23;1818009;78;20687;-73
2024/03/29 09:08:29;;;;;;;;;;;;;;;13.13;100.00;99149.63;1815452;78;20121;-72
2024/03/29 09:10:58;;;;;;;;;;;;;;;13.12;100.00;99149.75;1810128;78;20106;-71
2024/03/29 09:13:24;;;;;;;;;;;;;;;13.07;100.00;99146.19;1807916;77;20099;-72
2024/03/29 09:15:50;;;;;;;;;;;;;;;13.02;100.00;99152.27;1797107;79;20142;-72
2024/03/29 09:18:26;;;;;;;;;;;;;;;12.97;100.00;99149.18;1804302;77;20092;-72
2024/03/29 09:20:57;;;;;;;;;;;;;;;12.91;100.00;99150.50;1795957;78;20111;-72
2024/03/29 09:23:25;;;;;;;;;;;;;;;12.86;100.00;99153.13;1813209;79;20148;-70
2024/03/29 09:25:53;;;;;;;;;;;;;;;12.79;100.00;99155.41;1798918;78;20456;-70
2024/03/29 09:28:21;;;;;;;;;;;;;;;12.74;100.00;99149.72;1800206;78;20109;-72
2024/03/29 09:30:50;;;;;;;;;;;;;;;12.72;100.00;99152.09;1800487;77;20106;-71
2024/03/29 09:33:22;;;;;;;;;;;;;;;12.68;100.00;99170.63;1800142;79;20110;-76
2024/03/29 09:35:48;;;;;;;;;;;;;;;12.67;100.00;99170.27;1809509;77;20172;-70
2024/03/29 09:38:15;;;;;;;;;;;;;;;12.68;100.00;99180.23;1821354;77;20387;-69
2024/03/29 09:40:43;;;;;;;;;;;;;;;12.67;100.00;99183.33;1826836;77;20103;-72
2024/03/29 09:43:10;;;;;;;;;;;;;;;12.65;100.00;99181.78;1815335;77;20144;-72
2024/03/29 09:45:37;;;;;;;;;;;;;;;12.60;100.00;99182.14;1823133;77;20106;-74
2024/03/29 09:48:06;;;;;;;;;;;;;;;12.59;100.00;99180.95;1811923;77;20095;-70
2024/03/29 09:50:37;;;;;;;;;;;;;;;12.54;100.00;99176.55;1814711;77;20477;-72
2024/03/29 09:53:08;;;;;;;;;;;;;;;12.48;100.00;99167.41;1816817;77;20108;-73
2024/03/29 09:55:35;;;;;;;;;;;;;;;12.42;100.00;99152.22;1813681;78;20123;-71
2024/03/29 09:58:02;;;;;;;;;;;;;;;12.37;100.00;99153.55;1812290;77;20127;-70
2024/03/29 10:00:29;;;;;;;;;;;;;;;12.30;100.00;99155.33;1816759;78;20108;-76
2024/03/29 10:02:59;;;;;;;;;;;;;;;12.26;100.00;99149.16;1812457;77;20173;-70
2024/03/29 10:05:39;;;;;;;;;;;;;;;12.21;100.00;99146.06;1807205;77;20134;-72
2024/03/29 10:08:18;;;;;;;;;;;;;;;12.17;100.00;99152.47;1807833;77;20218;-71
2024/03/29 10:10:46;;;;;;;;;;;;;;;12.11;100.00;99142.49;1804901;78;20128;-69
2024/03/29 10:13:12;;;;;;;;;;;;;;;12.07;100.00;99133.23;1807670;77;20448;-72
2024/03/29 10:15:47;;;;;;;;;;;;;;;12.02;100.00;99120.53;1819902;77;20098;-72
2024/03/29 10:18:10;;;;;;;;;;;;;;;12.02;100.00;99112.70;1821138;77;20092;-71
2024/03/29 10:20:38;;;;;;;;;;;;;;;12.00;100.00;99121.95;1808026;77;20203;-74
2024/03/29 10:23:07;;;;;;;;;;;;;;;12.01;100.00;99129.31;1800989;77;20214;-72
2024/03/29 10:25:34;;;;;;;;;;;;;;;12.01;100.00;99134.53;1813183;77;20100;-78
2024/03/29 10:28:12;;;;;;;;;;;;;;;12.02;100.00;99139.63;1813491;77;20148;-77
2024/03/29 10:30:40;;;;;;;;;;;;;;;12.05;100.00;99145.09;1813966;77;20273;-73
2024/03/29 10:33:06;;;;;;;;;;;;;;;12.05;100.00;99139.05;1805183;79;20644;-76
2024/03/29 10:35:38;;;;;;;;;;;;;;;12.02;100.00;99141.41;1804090;78;20472;-73
2024/03/29 10:38:08;;;;;;;;;;;;;;;12.08;100.00;99138.81;1809750;77;20225;-72
2024/03/29 10:40:38;;;;;;;;;;;;;;;12.20;100.00;99141.80;1799362;78;20171;-75
2024/03/29 10:43:09;;;;;;;;;;;;;;;12.35;100.00;99136.70;1821351;77;20094;-75
2024/03/29 10:45:33;;;;;;;;;;;;;;;12.50;100.00;99137.27;1812673;77;20385;-72
2024/03/29 10:48:07;;;;;;;;;;;;;;;12.58;100.00;99132.28;1809170;77;20197;-71
2024/03/29 10:50:33;;;;;;;;;;;;;;;12.62;100.00;99132.39;1784807;78;20126;-72
2024/03/29 10:53:00;;;;;;;;;;;;;;;12.63;100.00;99124.91;1819791;78;20116;-70
2024/03/29 10:55:29;;;;;;;;;;;;;;;12.63;100.00;99124.44;1810760;79;20118;-71
2024/03/29 10:57:56;;;;;;;;;;;;;;;12.66;100.00;99124.20;1785679;79;20134;-74
2024/03/29 11:00:22;;;;;;;;;;;;;;;12.68;100.00;99122.30;1779983;78;20281;-70
2024/03/29 11:03:07;;;;;;;;;;;;;;;12.76;100.00;99130.84;1791852;77;20130;-71
2024/03/29 11:05:33;;;;;;;;;;;;;;;12.86;100.00;99128.30;1799475;79;20134;-71
2024/03/29 11:08:02;;;;;;;;;;;;;;;12.95;100.00;99124.48;1776027;79;20137;-71
2024/03/29 11:10:36;;;;;;;;;;;;;;;13.04;100.00;99124.22;1813292;78;20116;-70
2024/03/29 11:13:28;;;;;;;;;;;;;;;13.12;100.00;99124.91;1793373;79;20558;-71
2024/03/29 11:15:54;;;;;;;;;;;;;;;13.21;100.00;99122.87;1821564;77;20124;-71
2024/03/29 11:18:21;;;;;;;;;;;;;;;13.31;100.00;99121.17;1818631;77;20100;-70
2024/03/29 11:20:51;;;;;;;;;;;;;;;13.37;100.00;99125.07;1818418;77;20112;-70
2024/03/29 11:23:19;;;;;;;;;;;;;;;13.43;100.00;99125.88;1821414;78;20417;-71
2024/03/29 11:25:46;;;;;;;;;;;;;;;13.45;100.00;99121.35;1826744;78;20087;-70
2024/03/29 11:28:13;;;;;;;;;;;;;;;13.43;100.00;99127.19;1819637;78;20120;-71
2024/03/29 11:30:46;;;;;;;;;;;;;;;13.41;100.00;99124.70;1811148;78;20125;-71
2024/03/29 11:33:37;;;;;;;;;;;;;;;13.45;100.00;99125.28;1802728;78;20133;-71
2024/03/29 11:36:14;;;;;;;;;;;;;;;13.44;100.00;99124.92;1788548;79;20106;-71
2024/03/29 11:38:40;;;;;;;;;;;;;;;13.43;100.00;99131.94;1792821;79;20178;-70
2024/03/29 11:41:09;;;;;;;;;;;;;;;13.37;100.00;99127.21;1783271;79;20099;-70
2024/03/29 11:43:38;;;;;;;;;;;;;;;13.32;100.00;99128.89;1798664;79;20142;-69
2024/03/29 11:46:11;;;;;;;;;;;;;;;13.29;100.00;99132.23;1810648;79;20103;-71
2024/03/29 11:48:38;;;;;;;;;;;;;;;13.26;100.00;99130.69;1814097;77;20102;-73
2024/03/29 11:51:09;;;;;;;;;;;;;;;13.23;100.00;99130.94;1787207;78;20435;-70
2024/03/29 11:53:35;;;;;;;;;;;;;;;13.21;100.00;99130.23;1802640;78;20146;-69
2024/03/29 11:56:03;;;;;;;;;;;;;;;13.16;100.00;99137.65;1805998;79;20119;-69
2024/03/29 11:58:31;;;;;;;;;;;;;;;13.10;100.00;99135.97;1796646;77;20120;-70
2024/03/29 12:00:59;;;;;;;;;;;;;;;13.06;100.00;99138.00;1805827;77;20121;-69
2024/03/29 12:03:26;;;;;;;;;;;;;;;13.01;100.00;99134.45;1808559;78;20107;-70
2024/03/29 12:05:55;;;;;;;;;;;;;;;12.98;100.00;99142.53;1815214;77;20123;-71
2024/03/29 12:08:22;;;;;;;;;;;;;;;12.98;100.00;99137.78;1820916;77;20103;-71
2024/03/29 12:10:48;;;;;;;;;;;;;;;12.96;100.00;99147.05;1843887;77;20122;-69
2024/03/29 12:13:16;;;;;;;;;;;;;;;12.91;100.00;99147.89;1797614;77;20088;-74
2024/03/29 12:15:47;;;;;;;;;;;;;;;12.88;100.00;99145.99;1842595;77;20084;-73
2024/03/29 12:18:16;;;;;;;;;;;;;;;12.85;100.00;99147.54;1829691;77;20114;-72
2024/03/29 12:20:46;;;;;;;;;;;;;;;12.86;100.00;99151.34;1819523;77;20175;-73
2024/03/29 12:23:13;;;;;;;;;;;;;;;12.86;100.00;99153.95;1776632;78;20094;-73
2024/03/29 12:25:39;;;;;;;;;;;;;;;12.86;100.00;99151.34;1798982;77;20108;-73
2024/03/29 12:28:06;;;;;;;;;;;;;;;12.89;100.00;99147.17;1821083;77;20109;-72
2024/03/29 12:30:32;;;;;;;;;;;;;;;12.92;100.00;99148.72;1819391;79;20471;-70
2024/03/29 12:33:09;;;;;;;;;;;;;;;12.90;100.00;99151.45;1820322;77;20672;-72
2024/03/29 12:35:36;;;;;;;;;;;;;;;12.87;100.00;99154.78;1818864;77;20092;-72
2024/03/29 12:38:04;;;;;;;;;;;;;;;12.84;100.00;99160.25;1816236;77;20112;-72
2024/03/29 12:40:39;;;;;;;;;;;;;;;12.78;100.00;99158.15;1817653;77;20106;-70
2024/03/29 12:43:08;;;;;;;;;;;;;;;12.73;100.00;99161.12;1820745;77;20177;-68
2024/03/29 12:45:36;;;;;;;;;;;;;;;12.72;100.00;99163.85;1810159;77;20181;-71
2024/03/29 12:48:13;;;;;;;;;;;;;;;12.66;100.00;99165.98;1806619;77;20390;-71
2024/03/29 12:50:41;;;;;;;;;;;;;;;12.61;100.00;99168.13;1810859;78;20151;-73
2024/03/29 12:53:09;;;;;;;;;;;;;;;12.54;100.00;99172.16;1783506;79;20476;-70
2024/03/29 12:55:45;;;;;;;;;;;;;;;12.48;100.00;99173.11;1806513;78;20103;-75
2024/03/29 12:58:22;;;;;;;;;;;;;;;12.44;100.00;99176.91;1755221;80;20127;-69
2024/03/29 13:00:48;;;;;;;;;;;;;;;12.44;100.00;99176.91;1769873;79;20097;-69
2024/03/29 13:03:15;;;;;;;;;;;;;;;12.45;100.00;99179.88;1753016;80;20159;-74
2024/03/29 13:05:44;;;;;;;;;;;;;;;12.47;100.00;99180.59;1752651;80;20182;-72
2024/03/29 13:08:15;;;;;;;;;;;;;;;12.47;100.00;99183.20;1764733;80;20114;-73
2024/03/29 13:10:42;;;;;;;;;;;;;;;12.46;100.00;99186.76;1767426;80;20157;-73
2024/03/29 13:13:08;;;;;;;;;;;;;;;12.42;100.00;99183.55;1754351;80;20095;-73
2024/03/29 13:15:36;;;;;;;;;;;;;;;12.38;100.00;99188.69;1767692;80;20172;-71
2024/03/29 13:18:03;;;;;;;;;;;;;;;12.34;100.00;99184.64;1745386;80;20182;-73
2024/03/29 13:20:30;;;;;;;;;;;;;;;12.31;100.00;99186.18;1760025;80;20241;-73
2024/03/29 13:22:58;;;;;;;;;;;;;;;12.27;100.00;99186.05;1759584;80;20126;-73
2024/03/29 13:25:25;;;;;;;;;;;;;;;12.26;100.00;99185.22;1760094;80;20382;-72
2024/03/29 13:27:54;;;;;;;;;;;;;;;12.23;100.00;99192.45;1763959;80;20170;-70
2024/03/29 13:30:22;;;;;;;;;;;;;;;12.20;100.00;99187.47;1748952;80;20158;-73
2024/03/29 13:32:50;;;;;;;;;;;;;;;12.15;100.00;99190.42;1775669;80;20099;-74
2024/03/29 13:35:21;;;;;;;;;;;;;;;12.12;100.00;99187.21;1780050;80;20154;-72
2024/03/29 13:37:51;;;;;;;;;;;;;;;12.11;100.00;99189.47;1774006;79;20392;-76
2024/03/29 13:40:22;;;;;;;;;;;;;;;12.07;100.00;99190.17;1803962;77;20447;-76
2024/03/29 13:42:49;;;;;;;;;;;;;;;12.04;100.00;99187.79;1807726;78;20103;-72
2024/03/29 13:45:16;;;;;;;;;;;;;;;12.01;100.00;99204.98;1810962;77;20107;-71
2024/03/29 13:47:48;;;;;;;;;;;;;;;11.99;100.00;99199.07;1814731;77;20084;-77
2024/03/29 13:50:17;;;;;;;;;;;;;;;11.94;100.00;99197.28;1807135;77;20113;-77
2024/03/29 13:52:47;;;;;;;;;;;;;;;11.88;100.00;99192.52;1824158;77;20106;-75
2024/03/29 13:55:14;;;;;;;;;;;;;;;11.83;100.00;99199.38;1808285;77;20180;-73
2024/03/29 13:57:40;;;;;;;;;;;;;;;11.79;100.00;99202.33;1814876;77;20173;-72
2024/03/29 14:00:08;;;;;;;;;;;;;;;11.74;100.00;99213.53;1788803;77;20199;-74
2024/03/29 14:02:37;;;;;;;;;;;;;;;11.72;100.00;99221.94;1818944;77;20786;-73
2024/03/29 14:05:13;;;;;;;;;;;;;;;11.68;100.00;99222.64;1798132;77;20094;-77
2024/03/29 14:07:40;;;;;;;;;;;;;;;11.66;100.00;99229.27;1804316;78;20151;-72
2024/03/29 14:10:07;;;;;;;;;;;;;;;11.63;100.00;99231.27;1819765;77;20411;-73
2024/03/29 14:12:34;;;;;;;;;;;;;;;11.60;100.00;99232.80;1797170;77;20159;-70
2024/03/29 14:15:06;;;;;;;;;;;;;;;11.57;100.00;99237.79;1803406;78;20095;-74
2024/03/29 14:17:34;;;;;;;;;;;;;;;11.56;100.00;99245.25;1815395;77;20456;-74
2024/03/29 14:20:03;;;;;;;;;;;;;;;11.54;100.00;99244.53;1821398;77;20097;-79
2024/03/29 14:22:32;;;;;;;;;;;;;;;11.51;100.00;99252.57;1804393;77;20137;-72
2024/03/29 14:24:58;;;;;;;;;;;;;;;11.49;100.00;99247.94;1814924;78;20408;-69
2024/03/29 14:27:24;;;;;;;;;;;;;;;11.47;100.00;99254.20;1815781;77;20126;-71
2024/03/29 14:29:51;;;;;;;;;;;;;;;11.42;100.00;99253.70;1822458;77;20131;-72
2024/03/29 14:32:24;;;;;;;;;;;;;;;11.36;100.00;99260.18;1813858;78;20150;-72
2024/03/29 14:34:52;;;;;;;;;;;;;;;11.34;100.00;99263.36;1810420;77;20392;-70
2024/03/29 14:37:19;;;;;;;;;;;;;;;11.30;100.00;99264.05;1824659;77;20133;-71
2024/03/29 14:39:45;;;;;;;;;;;;;;;11.27;100.00;99272.09;1808208;77;20087;-72
2024/03/29 14:42:13;;;;;;;;;;;;;;;11.23;100.00;99273.24;1821108;77;20400;-71
2024/03/29 14:44:40;;;;;;;;;;;;;;;11.20;100.00;99277.84;1811011;77;20406;-71
2024/03/29 14:47:07;;;;;;;;;;;;;;;11.15;100.00;99280.80;1809436;77;20083;-72
2024/03/29 14:49:34;;;;;;;;;;;;;;;11.12;100.00;99281.02;1808290;77;20149;-70
2024/03/29 14:52:04;;;;;;;;;;;;;;;11.08;100.00;99270.44;1816644;78;20258;-71
2024/03/29 14:54:31;;;;;;;;;;;;;;;11.07;100.00;99273.15;1808614;77;20176;-73
2024/03/29 14:56:59;;;;;;;;;;;;;;;11.06;100.00;99296.23;1820990;77;20127;-72
2024/03/29 14:59:29;;;;;;;;;;;;;;;11.04;100.00;99306.76;1804802;77;20110;-68
2024/03/29 15:01:54;;;;;;;;;;;;;;;11.03;100.00;99316.81;1781402;79;20196;-72
2024/03/29 15:04:20;;;;;;;;;;;;;;;11.02;100.00;99330.31;1818686;77;20101;-70
2024/03/29 15:06:49;;;;;;;;;;;;;;;11.01;100.00;99338.23;1818987;78;20109;-71
2024/03/29 15:09:15;;;;;;;;;;;;;;;10.99;100.00;99338.80;1814345;77;20098;-71
2024/03/29 15:11:43;;;;;;;;;;;;;;;10.95;100.00;99334.27;1797813;79;20090;-68
2024/03/29 15:14:10;;;;;;;;;;;;;;;10.94;100.00;99343.50;1786221;79;20118;-72
2024/03/29 15:16:37;;;;;;;;;;;;;;;10.92;100.00;99363.61;1801958;78;20084;-68
2024/03/29 15:19:03;;;;;;;;;;;;;;;10.91;100.00;99369.75;1801357;79;20125;-74
2024/03/29 15:21:31;;;;;;;;;;;;;;;10.89;100.00;99376.36;1803210;77;20574;-73
2024/03/29 15:23:57;;;;;;;;;;;;;;;10.84;100.00;99374.53;1820797;77;20100;-70
2024/03/29 15:26:23;;;;;;;;;;;;;;;10.83;100.00;99376.78;1822253;77;20135;-69
2024/03/29 15:29:08;;;;;;;;;;;;;;;10.82;100.00;99365.16;1823433;77;20096;-69
2024/03/29 15:31:35;;;;;;;;;;;;;;;10.80;100.00;99377.45;1815714;77;20090;-72
2024/03/29 15:34:01;;;;;;;;;;;;;;;10.78;100.00;99378.88;1828655;77;20094;-73
2024/03/29 15:36:27;;;;;;;;;;;;;;;10.76;100.00;99371.64;1819316;78;20405;-75
2024/03/29 15:39:05;;;;;;;;;;;;;;;10.75;100.00;99376.48;1815946;78;20191;-74
2024/03/29 15:41:39;;;;;;;;;;;;;;;10.74;100.00;99386.53;1804462;79;20182;-72
2024/03/29 15:44:05;;;;;;;;;;;;;;;10.73;100.00;99387.94;1783184;79;20122;-73
2024/03/29 15:46:34;;;;;;;;;;;;;;;10.72;100.00;99396.69;1799206;79;20083;-72
2024/03/29 15:49:00;;;;;;;;;;;;;;;10.72;100.00;99403.20;1805746;79;20104;-74
2024/03/29 15:51:28;;;;;;;;;;;;;;;10.69;100.00;99408.97;1807032;79;20091;-73
2024/03/29 15:54:00;;;;;;;;;;;;;;;10.68;100.00;99420.32;1801351;79;20094;-73
2024/03/29 15:56:23;;;;;;;;;;;;;;;10.65;100.00;99416.62;1803248;79;20122;-70
